Time;durP1;ratioP1;P1;durP2;ratioP2;P2;SDS_P1;SDS_P2;PMS_P1;PMS_P2;Temp;Humidity;BMP_temperature;BMP_pressure;BME280_temperature;BME280_humidity;BME280_pressure;Samples;Min_cycle;Max_cycle;Signal;HPM_P1;HPM_P2
2022/07/01 00:02:07;;;;;;;5.10;3.40;;;11.90;99.90;;;;;;5034500;28;20198;-80
2022/07/01 00:04:38;;;;;;;6.22;3.40;;;11.90;99.90;;;;;;5034577;28;20206;-80
2022/07/01 00:07:10;;;;;;;8.00;3.58;;;11.90;99.90;;;;;;5038171;28;20205;-80
2022/07/01 00:09:42;;;;;;;5.30;3.40;;;12.00;99.90;;;;;;5034043;28;20635;-79
2022/07/01 00:12:13;;;;;;;6.30;3.58;;;12.00;99.90;;;;;;5035398;28;20200;-79
2022/07/01 00:14:45;;;;;;;7.15;3.53;;;12.00;99.90;;;;;;5038018;28;20198;-80
2022/07/01 00:17:16;;;;;;;9.25;3.78;;;12.00;99.90;;;;;;5034793;28;20222;-79
2022/07/01 00:19:48;;;;;;;6.47;3.83;;;12.10;99.90;;;;;;5035380;28;20198;-80
2022/07/01 00:22:19;;;;;;;5.78;3.50;;;12.10;99.90;;;;;;5042163;28;20558;-80
2022/07/01 00:24:49;;;;;;;8.02;3.72;;;12.10;99.90;;;;;;5037809;28;20202;-79
2022/07/01 00:27:20;;;;;;;6.07;3.38;;;12.20;99.90;;;;;;5036716;28;20650;-79
2022/07/01 00:29:52;;;;;;;7.70;3.33;;;12.20;99.90;;;;;;5040231;28;20697;-79
2022/07/01 00:32:23;;;;;;;6.13;3.08;;;12.20;99.90;;;;;;5046085;28;20620;-79
2022/07/01 00:34:54;;;;;;;6.32;3.05;;;12.20;99.90;;;;;;5041978;28;20197;-79
2022/07/01 00:37:24;;;;;;;6.13;3.00;;;12.20;99.90;;;;;;4935108;28;3064183;-78
2022/07/01 00:39:55;;;;;;;5.82;3.58;;;12.20;99.90;;;;;;5040243;28;20225;-79
2022/07/01 00:42:26;;;;;;;6.05;3.28;;;12.30;99.90;;;;;;5033210;28;20214;-79
2022/07/01 00:44:58;;;;;;;9.50;3.25;;;12.30;99.90;;;;;;5038840;28;20228;-79
2022/07/01 00:47:29;;;;;;;6.20;3.38;;;12.30;99.90;;;;;;5043947;28;20202;-79
2022/07/01 00:50:00;;;;;;;6.60;2.83;;;12.40;99.90;;;;;;5042361;28;20197;-79
2022/07/01 00:52:31;;;;;;;5.80;3.05;;;12.40;99.90;;;;;;5046701;28;20201;-78
2022/07/01 00:55:04;;;;;;;3.90;3.00;;;12.40;99.90;;;;;;5036195;28;20206;-78
2022/07/01 00:57:36;;;;;;;8.07;3.60;;;12.50;99.90;;;;;;5039613;28;20221;-78
2022/07/01 01:00:11;;;;;;;6.10;2.90;;;12.50;99.90;;;;;;5046372;28;20186;-78
2022/07/01 01:02:42;;;;;;;5.30;2.90;;;12.50;99.90;;;;;;5046786;28;20193;-78
2022/07/01 01:05:13;;;;;;;3.80;2.92;;;12.50;99.90;;;;;;5041137;28;20194;-78
2022/07/01 01:07:44;;;;;;;5.78;3.00;;;12.50;99.90;;;;;;5043797;28;20260;-77
2022/07/01 01:10:14;;;;;;;4.78;2.90;;;12.50;99.90;;;;;;5040982;28;20662;-78
2022/07/01 01:12:46;;;;;;;5.50;2.53;;;12.50;99.90;;;;;;5038922;28;20232;-78
2022/07/01 01:15:23;;;;;;;4.97;2.90;;;12.50;99.90;;;;;;5042590;28;20212;-78
2022/07/01 01:17:54;;;;;;;3.80;3.00;;;12.50;99.90;;;;;;5042954;28;20266;-78
2022/07/01 01:20:27;;;;;;;6.65;2.63;;;12.50;99.90;;;;;;5034396;28;20191;-78
2022/07/01 01:22:59;;;;;;;4.32;2.40;;;12.50;99.90;;;;;;5030918;28;20206;-78
2022/07/01 01:25:30;;;;;;;5.15;2.53;;;12.60;99.90;;;;;;5038588;28;20198;-77
2022/07/01 01:28:00;;;;;;;4.80;2.40;;;12.60;99.90;;;;;;5044011;28;20202;-79
2022/07/01 01:30:31;;;;;;;4.85;2.72;;;12.60;99.90;;;;;;5040477;28;20206;-78
2022/07/01 01:33:02;;;;;;;6.13;2.78;;;12.60;99.90;;;;;;5043686;28;20205;-79
2022/07/01 01:35:33;;;;;;;4.00;2.80;;;12.60;99.90;;;;;;5047095;28;20212;-80
2022/07/01 01:38:05;;;;;;;5.57;2.97;;;12.60;99.90;;;;;;5040426;28;20313;-79
2022/07/01 01:40:36;;;;;;;7.65;3.58;;;12.60;99.90;;;;;;5032196;28;20571;-79
2022/07/01 01:43:07;;;;;;;4.65;3.20;;;12.60;99.90;;;;;;5041266;28;20672;-79
2022/07/01 01:45:37;;;;;;;6.80;3.35;;;12.60;99.90;;;;;;5045012;28;20558;-79
2022/07/01 01:48:08;;;;;;;5.75;2.88;;;12.60;99.90;;;;;;5043112;28;20190;-79
2022/07/01 01:50:39;;;;;;;3.42;2.60;;;12.60;99.90;;;;;;5046818;28;20639;-78
2022/07/01 01:53:11;;;;;;;4.25;2.63;;;12.60;99.90;;;;;;5047028;28;20193;-80
2022/07/01 01:55:42;;;;;;;4.25;2.42;;;12.50;99.90;;;;;;5044798;28;20190;-80
2022/07/01 01:58:12;;;;;;;4.75;2.63;;;12.60;99.90;;;;;;5045945;28;20202;-79
2022/07/01 02:00:43;;;;;;;3.58;2.60;;;12.50;99.90;;;;;;5031750;28;20723;-80
2022/07/01 02:03:14;;;;;;;6.25;3.00;;;12.60;99.90;;;;;;5041814;28;20251;-79
2022/07/01 02:05:44;;;;;;;5.35;2.67;;;12.50;99.90;;;;;;5045305;28;20206;-79
2022/07/01 02:08:17;;;;;;;4.72;2.80;;;12.50;99.90;;;;;;5040973;28;20193;-79
2022/07/01 02:10:48;;;;;;;5.60;2.50;;;12.40;99.90;;;;;;5047630;28;20191;-79
2022/07/01 02:13:18;;;;;;;4.35;2.60;;;12.40;99.90;;;;;;5040134;28;20281;-78
2022/07/01 02:15:49;;;;;;;6.60;2.60;;;12.40;99.90;;;;;;5031632;28;20213;-79
2022/07/01 02:18:20;;;;;;;5.40;2.63;;;12.40;99.90;;;;;;5040643;28;20222;-80
2022/07/01 02:20:50;;;;;;;4.05;2.58;;;12.40;99.90;;;;;;5038673;28;20665;-80
2022/07/01 02:23:23;;;;;;;3.10;2.55;;;12.30;99.90;;;;;;5040246;28;20198;-80
2022/07/01 02:25:54;;;;;;;3.17;2.47;;;12.30;99.90;;;;;;5040257;28;20276;-80
2022/07/01 02:28:25;;;;;;;5.85;2.80;;;12.30;99.90;;;;;;5045936;28;20193;-79
2022/07/01 02:30:56;;;;;;;4.43;2.97;;;12.20;99.90;;;;;;5045287;28;20673;-80
2022/07/01 02:33:26;;;;;;;5.45;2.95;;;12.20;99.90;;;;;;5033507;28;20205;-80
2022/07/01 02:35:57;;;;;;;6.38;3.10;;;12.20;99.90;;;;;;5043254;28;20701;-80
2022/07/01 02:38:30;;;;;;;7.63;3.00;;;12.10;99.90;;;;;;5043110;28;20237;-79
2022/07/01 02:41:00;;;;;;;9.18;3.70;;;12.10;99.90;;;;;;5039263;28;20657;-80
2022/07/01 02:43:31;;;;;;;10.77;3.88;;;12.10;99.90;;;;;;5042161;28;20237;-80
2022/07/01 02:46:02;;;;;;;6.90;3.30;;;12.10;99.90;;;;;;5040453;28;20202;-80
2022/07/01 02:48:32;;;;;;;7.15;3.67;;;12.10;99.90;;;;;;5033984;28;20659;-81
2022/07/01 02:51:03;;;;;;;5.90;3.42;;;12.10;99.90;;;;;;5049321;28;20629;-81
2022/07/01 02:53:35;;;;;;;6.00;3.05;;;12.10;99.90;;;;;;5036083;28;20191;-80
2022/07/01 02:56:06;;;;;;;7.15;3.08;;;12.10;99.90;;;;;;5037153;28;20260;-80
2022/07/01 02:58:37;;;;;;;8.00;3.50;;;12.10;99.90;;;;;;5041909;28;20236;-80
2022/07/01 03:01:07;;;;;;;6.68;3.15;;;12.10;99.90;;;;;;5031626;28;20564;-79
2022/07/01 03:03:38;;;;;;;7.45;3.25;;;12.10;99.90;;;;;;5043746;28;20269;-80
2022/07/01 03:06:09;;;;;;;6.65;3.30;;;12.10;99.90;;;;;;5040973;28;20201;-80
2022/07/01 03:08:41;;;;;;;4.88;3.45;;;12.10;99.90;;;;;;5036041;28;20198;-80
2022/07/01 03:11:12;;;;;;;5.47;3.38;;;12.00;99.90;;;;;;5037224;28;20190;-80
2022/07/01 03:13:43;;;;;;;11.32;4.00;;;12.00;99.90;;;;;;5045050;28;20213;-80
2022/07/01 03:16:13;;;;;;;6.82;3.85;;;12.00;99.90;;;;;;5040624;28;20193;-80
2022/07/01 03:18:44;;;;;;;10.98;4.57;;;12.00;99.90;;;;;;5038041;28;20218;-80
2022/07/01 03:21:14;;;;;;;7.03;3.50;;;12.00;99.90;;;;;;5038326;28;20190;-80
2022/07/01 03:23:47;;;;;;;6.80;3.30;;;12.00;99.90;;;;;;5037972;28;20191;-81
2022/07/01 03:26:18;;;;;;;6.40;3.00;;;11.90;99.90;;;;;;5035785;28;20202;-81
2022/07/01 03:28:48;;;;;;;5.55;3.03;;;11.90;99.90;;;;;;5043500;28;20190;-81
2022/07/01 03:31:19;;;;;;;9.13;3.40;;;11.90;99.90;;;;;;5039251;28;20614;-80
2022/07/01 03:33:50;;;;;;;4.82;3.40;;;11.90;99.90;;;;;;5038023;28;20201;-80
2022/07/01 03:36:21;;;;;;;5.50;3.00;;;11.90;99.90;;;;;;5038824;28;20692;-80
2022/07/01 03:38:53;;;;;;;6.32;3.25;;;11.90;99.90;;;;;;5046588;28;20688;-81
2022/07/01 03:41:24;;;;;;;6.90;3.42;;;11.90;99.90;;;;;;5039492;28;20213;-81
2022/07/01 03:43:55;;;;;;;5.50;3.17;;;11.90;99.90;;;;;;5046308;28;20185;-80
2022/07/01 03:46:26;;;;;;;5.18;2.90;;;11.90;99.90;;;;;;5042987;28;20657;-80
2022/07/01 03:48:56;;;;;;;5.30;3.20;;;11.90;99.90;;;;;;5050910;28;20182;-80
2022/07/01 03:51:30;;;;;;;6.63;3.55;;;11.90;99.90;;;;;;5043863;28;20641;-80
2022/07/01 03:56:48;;;;;;;8.52;4.07;;;12.00;99.90;;;;;;5041747;28;20268;-80
2022/07/01 03:59:19;;;;;;;6.53;4.15;;;12.00;99.90;;;;;;5045161;28;20213;-80
2022/07/01 04:01:50;;;;;;;11.30;5.22;;;12.00;99.90;;;;;;5045052;28;20216;-80
2022/07/01 04:04:21;;;;;;;8.13;4.43;;;12.00;99.90;;;;;;5041692;28;20191;-80
2022/07/01 04:06:51;;;;;;;9.50;3.60;;;12.00;99.90;;;;;;5044012;28;20214;-79
2022/07/01 04:09:24;;;;;;;5.70;3.20;;;12.10;99.90;;;;;;5040729;28;20199;-80
2022/07/01 04:11:55;;;;;;;5.45;3.25;;;12.10;99.90;;;;;;5044892;28;20209;-79
2022/07/01 04:14:26;;;;;;;5.30;2.92;;;12.10;99.90;;;;;;5035722;28;20198;-80
2022/07/01 04:16:57;;;;;;;5.85;3.13;;;12.00;99.90;;;;;;5041032;28;20194;-80
2022/07/01 04:19:28;;;;;;;8.82;3.25;;;12.10;99.90;;;;;;5043656;28;20226;-79
2022/07/01 04:24:47;;;;;;;6.45;2.80;;;12.20;99.90;;;;;;5039907;28;20276;-78
2022/07/01 04:27:18;;;;;;;6.22;2.80;;;12.20;99.90;;;;;;5042120;28;20183;-80
2022/07/01 04:29:49;;;;;;;7.05;3.17;;;12.10;99.90;;;;;;5048161;28;20203;-80
2022/07/01 04:32:19;;;;;;;9.05;3.22;;;12.20;99.90;;;;;;5036615;28;20198;-80
2022/07/01 04:34:50;;;;;;;8.48;3.30;;;12.10;99.90;;;;;;5048517;28;20224;-80
2022/07/01 04:37:21;;;;;;;7.28;3.05;;;12.10;99.90;;;;;;5044768;28;20233;-81
2022/07/01 04:39:54;;;;;;;5.03;3.60;;;12.00;99.90;;;;;;5040562;28;20273;-80
2022/07/01 04:42:23;;;;;;;5.85;3.10;;;12.10;99.90;;;;;;5052415;28;20193;-80
2022/07/01 04:44:54;;;;;;;3.65;2.88;;;12.10;99.90;;;;;;5034291;28;20373;-80
2022/07/01 04:47:24;;;;;;;5.53;2.88;;;12.10;99.90;;;;;;5039067;28;20740;-81
2022/07/01 04:49:55;;;;;;;6.65;3.45;;;12.10;99.90;;;;;;5037047;28;20202;-80
2022/07/01 04:52:26;;;;;;;5.40;3.85;;;12.10;99.90;;;;;;5045265;28;20195;-81
2022/07/01 04:54:58;;;;;;;6.50;3.30;;;12.10;99.90;;;;;;5043983;28;20198;-81
2022/07/01 04:57:29;;;;;;;7.03;3.28;;;12.10;99.90;;;;;;5048397;28;20201;-80
2022/07/01 04:59:59;;;;;;;5.50;3.03;;;12.10;99.90;;;;;;5040269;28;20214;-80
2022/07/01 05:02:30;;;;;;;5.43;3.28;;;12.10;99.90;;;;;;5046057;28;20209;-80
2022/07/01 05:05:00;;;;;;;4.55;3.08;;;12.10;99.90;;;;;;5040641;28;20563;-81
2022/07/01 05:07:31;;;;;;;6.75;3.30;;;12.10;99.90;;;;;;5041711;28;20205;-80
2022/07/01 05:10:04;;;;;;;6.47;3.40;;;12.10;99.90;;;;;;5033311;28;20190;-80
2022/07/01 05:12:34;;;;;;;5.35;3.35;;;12.10;99.90;;;;;;5036972;28;20202;-80
2022/07/01 05:15:06;;;;;;;5.00;3.30;;;12.10;99.90;;;;;;5039125;28;20202;-81
2022/07/01 05:23:10;;;;;;;8.85;3.33;;;12.10;99.90;;;;;;5042489;28;20189;-81
2022/07/01 05:25:42;;;;;;;7.57;3.70;;;12.10;99.90;;;;;;5054829;28;20243;-81
2022/07/01 05:28:13;;;;;;;5.53;3.40;;;12.10;99.90;;;;;;5052751;28;20202;-81
2022/07/01 05:30:44;;;;;;;7.07;3.60;;;12.10;99.90;;;;;;5049361;28;20203;-81
2022/07/01 05:33:14;;;;;;;7.20;3.42;;;12.10;99.90;;;;;;5047056;28;20194;-81
2022/07/01 05:35:45;;;;;;;4.72;3.20;;;12.10;99.90;;;;;;5047556;28;20200;-81
2022/07/01 05:38:16;;;;;;;7.85;3.58;;;12.10;99.90;;;;;;5032938;28;20226;-81
2022/07/01 05:40:48;;;;;;;7.43;3.53;;;12.00;99.90;;;;;;5034652;28;20229;-81
2022/07/01 05:43:19;;;;;;;4.45;3.20;;;12.00;99.90;;;;;;5035796;28;20186;-81
2022/07/01 05:45:49;;;;;;;6.78;3.40;;;12.00;99.90;;;;;;5045006;28;20202;-81
2022/07/01 05:48:20;;;;;;;6.95;3.08;;;12.00;99.90;;;;;;5034696;28;20198;-81
2022/07/01 05:50:51;;;;;;;5.50;3.22;;;12.10;99.90;;;;;;5033847;28;20281;-80
2022/07/01 05:53:22;;;;;;;5.50;3.33;;;12.00;99.90;;;;;;5040309;28;20210;-80
2022/07/01 05:55:54;;;;;;;6.93;3.38;;;12.10;99.90;;;;;;5044934;28;20197;-80
2022/07/01 05:58:25;;;;;;;7.95;3.33;;;12.10;99.90;;;;;;5037491;28;20206;-80
2022/07/01 06:00:56;;;;;;;7.72;3.47;;;12.10;99.90;;;;;;5041990;28;20225;-80
2022/07/01 06:03:26;;;;;;;4.28;3.05;;;12.10;99.90;;;;;;5036980;28;20202;-79
2022/07/01 06:05:57;;;;;;;5.43;3.03;;;12.10;99.90;;;;;;5032552;28;20198;-80
2022/07/01 06:08:28;;;;;;;5.20;2.92;;;12.10;99.90;;;;;;5047497;28;20190;-79
2022/07/01 06:11:00;;;;;;;6.50;3.00;;;12.00;99.90;;;;;;5033160;28;20206;-80
2022/07/01 06:13:31;;;;;;;5.72;3.38;;;12.00;99.90;;;;;;5030445;28;20202;-79
2022/07/01 06:16:02;;;;;;;5.18;3.25;;;12.00;99.90;;;;;;5039229;28;20281;-80
2022/07/01 06:18:33;;;;;;;5.68;3.28;;;12.00;99.90;;;;;;5049851;28;20524;-80
2022/07/01 06:21:03;;;;;;;10.55;3.47;;;12.00;99.90;;;;;;5042430;28;20645;-80
2022/07/01 06:23:34;;;;;;;6.60;3.60;;;12.00;99.90;;;;;;5047077;28;20653;-80
2022/07/01 06:26:07;;;;;;;6.07;3.67;;;12.00;99.90;;;;;;5040300;28;20190;-80
2022/07/01 06:28:37;;;;;;;8.10;3.53;;;12.00;99.90;;;;;;5041896;28;20189;-79
2022/07/01 06:31:08;;;;;;;5.85;3.50;;;12.00;99.90;;;;;;5046322;28;20595;-79
2022/07/01 06:33:39;;;;;;;7.88;3.40;;;12.00;99.90;;;;;;5035849;28;20662;-79
2022/07/01 06:36:09;;;;;;;6.55;3.67;;;12.00;99.90;;;;;;5031182;28;20229;-80
2022/07/01 06:38:40;;;;;;;6.85;3.70;;;11.90;99.90;;;;;;5041884;28;20716;-79
2022/07/01 06:41:31;;;;;;;5.28;3.83;;;11.90;99.90;;;;;;5035107;28;20231;-80
2022/07/01 06:44:04;;;;;;;6.97;3.67;;;11.90;99.90;;;;;;5035372;28;20213;-79
2022/07/01 06:46:35;;;;;;;4.93;3.35;;;11.90;99.90;;;;;;5041885;28;20206;-79
2022/07/01 06:49:06;;;;;;;7.25;3.63;;;11.90;99.90;;;;;;5041080;28;20193;-79
2022/07/01 06:51:36;;;;;;;5.97;3.88;;;11.90;99.90;;;;;;5036175;28;21498;-79
2022/07/01 06:54:07;;;;;;;4.70;3.58;;;11.90;99.90;;;;;;5037941;28;20233;-80
2022/07/01 06:56:40;;;;;;;7.55;4.30;;;11.90;99.90;;;;;;5033837;28;20203;-79
2022/07/01 06:59:10;;;;;;;8.10;4.30;;;11.90;99.90;;;;;;5033292;28;20241;-78
2022/07/01 07:01:41;;;;;;;8.13;3.90;;;11.80;99.90;;;;;;5034822;28;20225;-79
2022/07/01 07:04:11;;;;;;;7.68;4.40;;;11.80;99.90;;;;;;5029946;28;20217;-79
2022/07/01 07:06:42;;;;;;;5.38;3.90;;;11.90;99.90;;;;;;5031517;28;20202;-79
2022/07/01 07:09:13;;;;;;;7.00;4.30;;;11.80;99.90;;;;;;5034515;28;20549;-79
2022/07/01 07:11:45;;;;;;;8.02;4.95;;;11.80;99.90;;;;;;5029666;28;20196;-78
2022/07/01 07:14:16;;;;;;;8.75;4.97;;;11.80;99.90;;;;;;5038817;28;20247;-79
2022/07/01 07:16:46;;;;;;;9.35;4.82;;;11.90;99.90;;;;;;5031006;28;20210;-79
2022/07/01 07:19:17;;;;;;;9.27;4.90;;;11.90;99.90;;;;;;5035714;28;20198;-79
2022/07/01 07:21:48;;;;;;;8.93;4.95;;;11.80;99.90;;;;;;5048867;28;20259;-78
2022/07/01 07:24:18;;;;;;;7.90;5.03;;;11.90;99.90;;;;;;5042570;28;20185;-79
2022/07/01 07:26:51;;;;;;;7.47;4.43;;;11.80;99.90;;;;;;5036802;28;20205;-78
2022/07/01 07:29:21;;;;;;;9.05;5.22;;;11.80;99.90;;;;;;5041629;28;20198;-82
2022/07/01 07:31:52;;;;;;;7.18;5.03;;;11.80;99.90;;;;;;5035488;28;20199;-79
2022/07/01 07:34:23;;;;;;;7.88;4.70;;;11.80;99.90;;;;;;5043226;28;20214;-79
2022/07/01 07:36:54;;;;;;;7.15;4.13;;;11.80;99.90;;;;;;5053019;22;20234;-83
2022/07/01 07:39:24;;;;;;;9.25;4.70;;;11.80;99.90;;;;;;5040047;28;20198;-85
2022/07/01 07:41:57;;;;;;;6.80;4.55;;;11.80;99.90;;;;;;5048273;28;20204;-78
2022/07/01 07:44:28;;;;;;;8.27;4.57;;;11.80;99.90;;;;;;5046697;28;20201;-84
2022/07/01 07:46:59;;;;;;;7.15;4.70;;;11.80;99.90;;;;;;5050753;28;20196;-79
2022/07/01 07:49:29;;;;;;;9.38;4.85;;;11.80;99.90;;;;;;5050388;28;20559;-84
2022/07/01 07:52:08;;;;;;;7.22;4.35;;;11.80;99.90;;;;;;5049401;28;20213;-79
2022/07/01 07:54:38;;;;;;;7.55;4.75;;;11.80;99.90;;;;;;5049375;28;20197;-89
2022/07/01 07:57:11;;;;;;;7.07;4.80;;;11.70;99.90;;;;;;5046013;28;20645;-85
2022/07/01 08:02:34;;;;;;;8.88;4.60;;;11.70;99.90;;;;;;5045371;28;20213;-83
2022/07/01 08:05:05;;;;;;;6.95;5.18;;;11.70;99.90;;;;;;5049300;28;20212;-81
2022/07/01 08:07:40;;;;;;;8.43;5.22;;;11.60;99.90;;;;;;5047266;28;20233;-87
2022/07/01 08:10:12;;;;;;;10.10;5.40;;;11.60;99.90;;;;;;5049425;28;20194;-87
2022/07/01 08:12:45;;;;;;;10.07;5.70;;;11.60;99.90;;;;;;5047368;28;20216;-86
2022/07/01 08:15:24;;;;;;;9.38;6.15;;;11.70;99.90;;;;;;5052816;28;20657;-86
2022/07/01 08:17:55;;;;;;;8.38;6.20;;;11.60;99.90;;;;;;5043050;28;20205;-74
2022/07/01 08:20:25;;;;;;;8.98;5.70;;;11.70;99.90;;;;;;5053616;28;20226;-83
2022/07/01 08:22:56;;;;;;;9.55;6.22;;;11.70;99.90;;;;;;5052531;28;20225;-87
2022/07/01 08:25:59;;;;;;;;;;;;;;;;;;;;;
2022/07/01 08:28:32;;;;;;;10.38;6.85;;;11.70;99.90;;;;;;5048494;28;20209;-80
2022/07/01 08:31:03;;;;;;;12.63;7.65;;;11.70;99.90;;;;;;5053852;28;20197;-86
2022/07/01 08:33:33;;;;;;;11.48;7.32;;;11.70;99.90;;;;;;5054798;28;20255;-87
2022/07/01 08:36:04;;;;;;;9.98;6.55;;;11.70;99.90;;;;;;5048697;28;20226;-84
2022/07/01 08:38:35;;;;;;;9.65;7.00;;;11.70;99.90;;;;;;5047782;28;20200;-84
2022/07/01 08:41:07;;;;;;;11.60;6.57;;;11.70;99.90;;;;;;5050698;28;20229;-74
2022/07/01 08:43:40;;;;;;;10.88;6.47;;;11.70;99.90;;;;;;5044056;28;20528;-87
2022/07/01 08:46:25;;;;;;;10.88;7.05;;;11.80;99.90;;;;;;5048747;28;20210;-77
2022/07/01 08:48:56;;;;;;;10.38;6.55;;;11.70;99.90;;;;;;5041756;28;20198;-80
2022/07/01 08:51:27;;;;;;;12.13;6.85;;;11.80;99.90;;;;;;5045811;28;20206;-75
2022/07/01 08:53:58;;;;;;;11.38;6.20;;;11.70;99.90;;;;;;5048911;28;20197;-86
2022/07/01 08:56:45;;;;;;;10.35;6.50;;;11.80;99.90;;;;;;5050254;28;20193;-75
2022/07/01 08:59:25;;;;;;;8.77;6.35;;;11.70;99.90;;;;;;5052723;28;20211;-76
2022/07/01 09:02:07;;;;;;;10.25;6.50;;;11.70;99.90;;;;;;5048301;28;20228;-79
2022/07/01 09:04:38;;;;;;;9.27;5.88;;;11.70;99.90;;;;;;5048076;28;20198;-81
2022/07/01 09:07:22;;;;;;;8.88;5.88;;;11.70;99.90;;;;;;5049839;28;20193;-82
2022/07/01 09:09:53;;;;;;;10.52;6.47;;;11.80;99.90;;;;;;5046633;28;20204;-84
2022/07/01 09:12:24;;;;;;;12.85;6.65;;;11.80;99.90;;;;;;5050819;28;20205;-81
2022/07/01 09:14:56;;;;;;;10.90;6.60;;;11.80;99.90;;;;;;5047077;28;20197;-84
2022/07/01 09:17:27;;;;;;;10.48;6.47;;;11.70;99.90;;;;;;5051540;28;20209;-84
2022/07/01 09:19:57;;;;;;;10.90;7.05;;;11.80;99.90;;;;;;5045676;28;20698;-83
2022/07/01 09:22:28;;;;;;;11.63;7.28;;;11.80;99.90;;;;;;5046370;28;21667;-84
2022/07/01 09:25:19;;;;;;;9.27;6.40;;;11.80;99.90;;;;;;5049320;28;20205;-79
2022/07/01 09:27:50;;;;;;;10.95;6.22;;;11.80;99.90;;;;;;5050968;28;20781;-85
2022/07/01 09:30:32;;;;;;;9.75;5.97;;;11.80;99.90;;;;;;5049156;28;20201;-86
2022/07/01 09:33:29;;;;;;;9.65;5.70;;;11.80;99.90;;;;;;5050231;28;20209;-85
2022/07/01 09:39:01;;;;;;;8.80;5.93;;;11.70;99.90;;;;;;5025524;28;20285;-83
2022/07/01 09:41:39;;;;;;;7.97;5.78;;;11.70;99.90;;;;;;5043826;28;20660;-84
2022/07/01 09:44:14;;;;;;;8.63;5.78;;;11.70;99.90;;;;;;5053307;28;20566;-80
2022/07/01 09:46:58;;;;;;;7.63;5.57;;;11.70;99.90;;;;;;5048784;28;20199;-87
2022/07/01 09:49:29;;;;;;;9.90;6.22;;;11.80;99.90;;;;;;5052770;28;20194;-86
2022/07/01 09:52:00;;;;;;;9.02;5.95;;;11.80;99.90;;;;;;5053350;28;20193;-87
2022/07/01 09:54:30;;;;;;;8.93;5.43;;;11.70;99.90;;;;;;5051710;28;20208;-83
2022/07/01 09:57:01;;;;;;;8.85;5.97;;;11.80;99.90;;;;;;5050621;28;20645;-80
2022/07/01 09:59:40;;;;;;;7.90;5.45;;;11.80;99.90;;;;;;5043609;28;20224;-85
2022/07/01 10:02:14;;;;;;;11.70;5.13;;;11.70;99.90;;;;;;5047952;28;20236;-81
2022/07/01 10:04:50;;;;;;;9.93;5.40;;;11.70;99.90;;;;;;5047465;28;20204;-83
2022/07/01 10:07:32;;;;;;;6.53;5.35;;;11.70;99.90;;;;;;5048913;28;20204;-83
2022/07/01 10:10:35;;;;;;;10.38;4.78;;;11.70;99.90;;;;;;5041795;28;20204;-85
2022/07/01 10:13:08;;;;;;;8.98;5.13;;;11.70;99.90;;;;;;5045479;28;20201;-85
2022/07/01 10:15:39;;;;;;;7.25;5.25;;;11.70;99.90;;;;;;5050606;28;21786;-77
2022/07/01 10:18:23;;;;;;;8.52;5.10;;;11.70;99.90;;;;;;5047649;28;20209;-86
2022/07/01 10:20:55;;;;;;;9.05;5.40;;;11.80;99.90;;;;;;5051994;28;20209;-87
2022/07/01 10:23:27;;;;;;;8.77;5.30;;;11.70;99.90;;;;;;5048725;28;20201;-79
2022/07/01 10:26:04;;;;;;;8.88;5.15;;;11.70;99.90;;;;;;5047481;28;20202;-86
2022/07/01 10:28:45;;;;;;;11.18;5.60;;;11.70;99.90;;;;;;5041557;28;20205;-87
2022/07/01 10:31:17;;;;;;;9.52;5.18;;;11.70;99.90;;;;;;5046448;28;20680;-84
2022/07/01 10:33:56;;;;;;;7.53;4.85;;;11.70;99.90;;;;;;5045110;28;20243;-87
2022/07/01 10:36:31;;;;;;;9.10;5.47;;;11.70;99.90;;;;;;5042270;28;20240;-87
2022/07/01 10:39:22;;;;;;;8.55;5.55;;;11.80;99.90;;;;;;5047550;28;20194;-85
2022/07/01 10:42:10;;;;;;;6.80;5.50;;;11.80;99.90;;;;;;5046700;28;20217;-85
2022/07/01 10:44:40;;;;;;;10.80;5.68;;;11.70;99.90;;;;;;5040886;28;20206;-86
2022/07/01 10:47:11;;;;;;;8.10;5.85;;;11.70;99.90;;;;;;5052254;28;20207;-86
2022/07/01 10:50:07;;;;;;;8.52;5.80;;;11.70;99.90;;;;;;5047330;28;20208;-87
2022/07/01 10:52:38;;;;;;;9.10;5.47;;;11.70;99.90;;;;;;5051713;28;20707;-88
2022/07/01 10:55:10;;;;;;;9.27;5.90;;;11.70;99.90;;;;;;5044638;28;20197;-82
2022/07/01 10:57:43;;;;;;;8.77;5.75;;;11.70;99.90;;;;;;5048557;28;20212;-86
2022/07/01 11:00:37;;;;;;;8.18;5.50;;;11.60;99.90;;;;;;5047897;28;20193;-87
2022/07/01 11:03:17;;;;;;;11.70;5.85;;;11.70;99.90;;;;;;5050433;28;20204;-87
2022/07/01 11:05:51;;;;;;;8.00;5.68;;;11.70;99.90;;;;;;5051074;28;20208;-86
2022/07/01 11:08:22;;;;;;;8.68;5.68;;;11.70;99.90;;;;;;5052268;28;20189;-88
2022/07/01 11:11:04;;;;;;;7.68;5.57;;;11.80;99.90;;;;;;5048027;28;20201;-84
2022/07/01 11:13:37;;;;;;;8.98;5.38;;;11.70;99.90;;;;;;5044781;28;20207;-81
2022/07/01 11:16:07;;;;;;;10.63;6.00;;;11.80;99.90;;;;;;5045580;28;20195;-87
2022/07/01 11:18:38;;;;;;;9.63;5.60;;;11.80;99.90;;;;;;5049447;28;20205;-87
2022/07/01 11:21:13;;;;;;;8.82;5.32;;;11.80;99.90;;;;;;5047047;28;20213;-86
2022/07/01 11:23:54;;;;;;;8.10;5.22;;;11.80;99.90;;;;;;5051200;28;20208;-86
2022/07/01 11:26:26;;;;;;;6.50;5.47;;;11.80;99.90;;;;;;5043209;28;20200;-87
2022/07/01 11:28:57;;;;;;;7.70;5.35;;;11.80;99.90;;;;;;5038942;28;20276;-85
2022/07/01 11:31:32;;;;;;;7.78;5.18;;;11.80;99.90;;;;;;5043305;28;20220;-86
2022/07/01 11:34:03;;;;;;;8.48;5.45;;;11.80;99.90;;;;;;5037235;28;20229;-87
2022/07/01 11:39:35;;;;;;;7.35;4.68;;;11.80;99.90;;;;;;5047059;28;20250;-87
2022/07/01 11:42:07;;;;;;;5.82;4.45;;;11.80;99.90;;;;;;5045995;28;20218;-85
2022/07/01 11:44:42;;;;;;;7.80;5.05;;;11.80;99.90;;;;;;5046722;28;20197;-86
2022/07/01 11:47:13;;;;;;;5.90;4.70;;;11.80;99.90;;;;;;5046224;28;20196;-86
2022/07/01 11:49:51;;;;;;;7.50;4.35;;;11.80;99.90;;;;;;5048162;28;20201;-87
2022/07/01 11:52:38;;;;;;;6.18;4.18;;;11.80;99.90;;;;;;5047050;28;20196;-85
2022/07/01 11:55:10;;;;;;;7.45;4.20;;;11.80;99.90;;;;;;5051107;28;20208;-76
2022/07/01 11:57:43;;;;;;;6.13;3.97;;;11.80;99.90;;;;;;5043754;28;20244;-85
2022/07/01 12:00:15;;;;;;;7.10;4.53;;;11.80;99.90;;;;;;5043889;28;20240;-85
2022/07/01 12:02:46;;;;;;;5.65;3.95;;;11.80;99.90;;;;;;5049778;28;20209;-86
2022/07/01 12:05:16;;;;;;;6.07;3.53;;;11.80;99.90;;;;;;5047426;28;20186;-85
2022/07/01 12:07:51;;;;;;;7.45;3.50;;;11.80;99.90;;;;;;5045756;28;20205;-83
2022/07/01 12:10:25;;;;;;;7.20;3.60;;;11.80;99.90;;;;;;5048219;28;20181;-85
2022/07/01 12:13:05;;;;;;;5.20;3.60;;;11.80;99.90;;;;;;5045651;28;20217;-83
2022/07/01 12:15:35;;;;;;;5.05;3.45;;;11.80;99.90;;;;;;5046714;28;21726;-83
2022/07/01 12:18:10;;;;;;;5.68;4.00;;;11.80;99.90;;;;;;5047630;28;20190;-84
2022/07/01 12:20:41;;;;;;;4.85;3.78;;;11.70;99.90;;;;;;5048792;28;20189;-84
2022/07/01 12:23:17;;;;;;;4.82;3.15;;;11.70;99.90;;;;;;5053073;28;20182;-84
2022/07/01 12:25:52;;;;;;;4.28;3.30;;;11.60;99.90;;;;;;5049871;28;20205;-83
2022/07/01 12:28:33;;;;;;;4.65;3.10;;;11.60;99.90;;;;;;5046718;28;20205;-83
2022/07/01 12:31:08;;;;;;;6.82;3.60;;;11.60;99.90;;;;;;5046488;28;20205;-73
2022/07/01 12:33:41;;;;;;;6.68;3.08;;;11.60;99.90;;;;;;5046263;28;20575;-74
2022/07/01 12:36:14;;;;;;;6.20;3.25;;;11.60;99.90;;;;;;5047107;28;20692;-84
2022/07/01 12:38:47;;;;;;;5.55;2.97;;;11.60;99.90;;;;;;5047817;28;20221;-82
2022/07/01 12:41:43;;;;;;;5.07;3.28;;;11.60;99.90;;;;;;5048284;28;20612;-84
2022/07/01 12:44:57;;;;;;;4.82;3.17;;;11.60;99.90;;;;;;5045163;28;20193;-85
2022/07/01 12:47:32;;;;;;;4.28;3.45;;;11.60;99.90;;;;;;5047018;28;20300;-82
2022/07/01 12:50:19;;;;;;;6.30;3.72;;;11.60;99.90;;;;;;5048929;28;20207;-85
2022/07/01 12:53:02;;;;;;;4.78;3.38;;;11.60;99.90;;;;;;5044560;28;20659;-84
2022/07/01 12:55:36;;;;;;;4.40;3.35;;;11.70;99.90;;;;;;5049384;28;20695;-78
2022/07/01 12:58:10;;;;;;;5.43;3.67;;;11.60;99.90;;;;;;5047152;28;20197;-79
2022/07/01 13:00:42;;;;;;;5.22;3.40;;;11.70;99.90;;;;;;5047052;28;20194;-84
2022/07/01 13:03:16;;;;;;;13.20;10.95;;;11.60;99.90;;;;;;5042318;28;20209;-77
2022/07/01 13:05:47;;;;;;;25.23;17.05;;;11.70;99.90;;;;;;5048517;28;20196;-86
2022/07/01 13:08:18;;;;;;;16.73;12.60;;;11.70;99.90;;;;;;5047556;28;20213;-81
2022/07/01 13:10:51;;;;;;;11.10;7.60;;;11.70;99.90;;;;;;5046534;28;20197;-83
2022/07/01 13:13:22;;;;;;;7.90;6.05;;;11.70;99.90;;;;;;5044496;28;20690;-87
2022/07/01 13:15:53;;;;;;;9.18;5.95;;;11.70;99.90;;;;;;5045409;28;20205;-86
2022/07/01 13:18:23;;;;;;;8.35;6.45;;;11.80;99.90;;;;;;5046881;28;20205;-80
2022/07/01 13:20:57;;;;;;;7.47;5.40;;;11.70;99.90;;;;;;5044761;28;20199;-82
2022/07/01 13:23:53;;;;;;;8.30;5.95;;;11.70;99.90;;;;;;5049272;28;20201;-77
2022/07/01 13:26:40;;;;;;;7.55;5.28;;;11.70;99.90;;;;;;5050274;28;20205;-75
2022/07/01 13:29:11;;;;;;;8.90;5.70;;;11.70;99.90;;;;;;5047027;28;20659;-78
2022/07/01 13:31:42;;;;;;;7.20;4.50;;;11.70;99.90;;;;;;5044760;28;20646;-81
2022/07/01 13:34:12;;;;;;;6.57;4.05;;;11.70;99.90;;;;;;5044887;28;20185;-87
2022/07/01 13:36:43;;;;;;;5.55;4.00;;;11.70;99.90;;;;;;5087998;22;20264;-77